sensor_id;sensor_type;location;lat;lon;timestamp;pressure;altitude;pressure_sealevel;temperature;humidity
20037;BME280;10179;42.640;23.312;2022-07-29T00:00:58;93841.03;;;22.41;55.92
20037;BME280;10179;42.640;23.312;2022-07-29T00:03:23;93844.59;;;22.36;55.69
20037;BME280;10179;42.640;23.312;2022-07-29T00:05:49;93845.47;;;22.31;55.08
20037;BME280;10179;42.640;23.312;2022-07-29T00:08:14;93901.38;;;22.66;55.50
20037;BME280;10179;42.640;23.312;2022-07-29T00:10:41;93905.75;;;22.61;55.41
20037;BME280;10179;42.640;23.312;2022-07-29T00:13:07;93889.44;;;22.44;55.46
20037;BME280;10179;42.640;23.312;2022-07-29T00:15:33;93915.94;;;22.59;55.62
20037;BME280;10179;42.640;23.312;2022-07-29T00:17:58;93892.16;;;22.39;56.06
20037;BME280;10179;42.640;23.312;2022-07-29T00:20:24;93916.63;;;22.51;55.96
20037;BME280;10179;42.640;23.312;2022-07-29T00:22:49;93922.09;;;22.60;55.72
20037;BME280;10179;42.640;23.312;2022-07-29T00:25:15;93885.66;;;22.45;56.06
20037;BME280;10179;42.640;23.312;2022-07-29T00:27:40;93911.00;;;22.67;55.68
20037;BME280;10179;42.640;23.312;2022-07-29T00:30:06;93913.88;;;22.70;55.76
20037;BME280;10179;42.640;23.312;2022-07-29T00:32:32;93907.66;;;22.75;55.40
20037;BME280;10179;42.640;23.312;2022-07-29T00:34:58;93801.88;;;22.12;55.57
20037;BME280;10179;42.640;23.312;2022-07-29T00:37:42;93916.59;;;22.84;55.39
20037;BME280;10179;42.640;23.312;2022-07-29T00:40:08;93904.38;;;22.78;55.30
20037;BME280;10179;42.640;23.312;2022-07-29T00:42:47;93862.31;;;22.65;55.59
20037;BME280;10179;42.640;23.312;2022-07-29T00:45:14;93913.97;;;22.98;54.96
20037;BME280;10179;42.640;23.312;2022-07-29T00:47:39;93896.16;;;22.88;55.19
20037;BME280;10179;42.640;23.312;2022-07-29T00:50:07;93910.41;;;23.02;54.79
20037;BME280;10179;42.640;23.312;2022-07-29T00:52:35;93920.31;;;23.02;55.03
20037;BME280;10179;42.640;23.312;2022-07-29T00:55:03;93923.53;;;23.04;54.95
20037;BME280;10179;42.640;23.312;2022-07-29T00:57:28;93754.75;;;21.97;54.92
20037;BME280;10179;42.640;23.312;2022-07-29T00:59:54;93922.16;;;23.06;54.68
20037;BME280;10179;42.640;23.312;2022-07-29T01:02:19;93917.25;;;23.08;54.91
20037;BME280;10179;42.640;23.312;2022-07-29T01:04:45;93913.50;;;23.09;54.50
20037;BME280;10179;42.640;23.312;2022-07-29T01:07:10;93868.97;;;22.81;54.71
20037;BME280;10179;42.640;23.312;2022-07-29T01:09:37;93913.41;;;23.15;54.68
20037;BME280;10179;42.640;23.312;2022-07-29T01:12:03;93887.34;;;22.87;54.74
20037;BME280;10179;42.640;23.312;2022-07-29T01:14:30;93912.81;;;23.18;54.48
20037;BME280;10179;42.640;23.312;2022-07-29T01:19:41;93908.44;;;23.22;54.65
20037;BME280;10179;42.640;23.312;2022-07-29T01:27:51;93900.91;;;23.24;54.79
20037;BME280;10179;42.640;23.312;2022-07-29T01:30:22;93913.03;;;23.21;54.80
20037;BME280;10179;42.640;23.312;2022-07-29T01:32:58;93843.63;;;22.92;54.65
20037;BME280;10179;42.640;23.312;2022-07-29T01:35:31;93882.03;;;23.15;54.59
20037;BME280;10179;42.640;23.312;2022-07-29T01:38:01;93886.81;;;23.04;54.73
20037;BME280;10179;42.640;23.312;2022-07-29T01:40:58;93888.38;;;23.05;55.35
20037;BME280;10179;42.640;23.312;2022-07-29T01:43:34;93887.38;;;23.01;55.39
20037;BME280;10179;42.640;23.312;2022-07-29T01:46:04;93886.91;;;22.99;55.48
20037;BME280;10179;42.640;23.312;2022-07-29T01:48:47;93883.03;;;23.05;55.63
20037;BME280;10179;42.640;23.312;2022-07-29T01:51:20;93886.81;;;23.04;55.73
20037;BME280;10179;42.640;23.312;2022-07-29T01:54:10;93888.38;;;23.05;55.64
20037;BME280;10179;42.640;23.312;2022-07-29T01:56:38;93873.09;;;22.92;55.82
20037;BME280;10179;42.640;23.312;2022-07-29T01:59:07;93891.44;;;22.99;55.47
20037;BME280;10179;42.640;23.312;2022-07-29T02:01:34;93882.63;;;22.98;55.74
20037;BME280;10179;42.640;23.312;2022-07-29T02:04:05;93766.84;;;22.27;55.57
20037;BME280;10179;42.640;23.312;2022-07-29T02:06:33;93879.47;;;22.96;55.76
20037;BME280;10179;42.640;23.312;2022-07-29T02:09:00;93800.00;;;22.45;55.49
20037;BME280;10179;42.640;23.312;2022-07-29T02:11:27;93878.88;;;22.99;55.73
20037;BME280;10179;42.640;23.312;2022-07-29T02:13:56;93859.16;;;22.90;55.87
20037;BME280;10179;42.640;23.312;2022-07-29T02:16:23;93873.50;;;22.99;55.90
20037;BME280;10179;42.640;23.312;2022-07-29T02:18:54;93825.22;;;22.72;55.69
20037;BME280;10179;42.640;23.312;2022-07-29T02:21:24;93862.19;;;23.02;55.96
20037;BME280;10179;42.640;23.312;2022-07-29T02:23:52;93868.34;;;23.03;55.61
20037;BME280;10179;42.640;23.312;2022-07-29T02:26:20;93829.38;;;22.78;55.53
20037;BME280;10179;42.640;23.312;2022-07-29T02:28:48;93870.31;;;22.97;55.64
20037;BME280;10179;42.640;23.312;2022-07-29T02:31:16;93864.38;;;23.00;56.14
20037;BME280;10179;42.640;23.312;2022-07-29T02:33:45;93854.44;;;23.01;56.12
20037;BME280;10179;42.640;23.312;2022-07-29T02:36:11;93849.47;;;22.94;56.11
20037;BME280;10179;42.640;23.312;2022-07-29T02:38:37;93837.19;;;22.93;56.20
20037;BME280;10179;42.640;23.312;2022-07-29T02:41:48;93844.91;;;23.08;55.84
20037;BME280;10179;42.640;23.312;2022-07-29T02:44:17;93845.91;;;22.99;56.21
20037;BME280;10179;42.640;23.312;2022-07-29T02:46:58;93808.88;;;22.87;55.94
20037;BME280;10179;42.640;23.312;2022-07-29T02:52:47;93837.59;;;23.00;55.88
20037;BME280;10179;42.640;23.312;2022-07-29T02:55:29;93831.50;;;23.22;55.65
20037;BME280;10179;42.640;23.312;2022-07-29T02:58:05;93808.81;;;22.92;56.02
20037;BME280;10179;42.640;23.312;2022-07-29T03:00:37;93829.03;;;22.98;55.96
20037;BME280;10179;42.640;23.312;2022-07-29T03:03:08;93840.97;;;22.92;55.82
20037;BME280;10179;42.640;23.312;2022-07-29T03:05:34;93839.50;;;22.81;56.02
20037;BME280;10179;42.640;23.312;2022-07-29T03:08:03;93843.88;;;22.77;56.29
20037;BME280;10179;42.640;23.312;2022-07-29T03:10:30;93843.38;;;22.75;56.84
20037;BME280;10179;42.640;23.312;2022-07-29T03:12:56;93833.75;;;22.74;56.64
20037;BME280;10179;42.640;23.312;2022-07-29T03:15:23;93842.88;;;22.73;56.52
20037;BME280;10179;42.640;23.312;2022-07-29T03:17:49;93852.00;;;22.72;56.74
20037;BME280;10179;42.640;23.312;2022-07-29T03:20:16;93788.47;;;22.31;57.08
20037;BME280;10179;42.640;23.312;2022-07-29T03:22:42;93854.97;;;22.70;56.70
20037;BME280;10179;42.640;23.312;2022-07-29T03:25:10;93856.38;;;22.68;57.08
20037;BME280;10179;42.640;23.312;2022-07-29T03:27:36;93854.75;;;22.67;57.10
20037;BME280;10179;42.640;23.312;2022-07-29T03:30:02;93859.06;;;22.68;56.98
20037;BME280;10179;42.640;23.312;2022-07-29T03:32:28;93857.53;;;22.61;57.31
20037;BME280;10179;42.640;23.312;2022-07-29T03:34:54;93824.56;;;22.33;57.47
20037;BME280;10179;42.640;23.312;2022-07-29T03:37:19;93867.09;;;22.68;57.33
20037;BME280;10179;42.640;23.312;2022-07-29T03:39:45;93859.53;;;22.70;57.23
20037;BME280;10179;42.640;23.312;2022-07-29T03:42:13;93864.91;;;22.70;57.24
20037;BME280;10179;42.640;23.312;2022-07-29T03:44:41;93870.25;;;22.70;57.58
20037;BME280;10179;42.640;23.312;2022-07-29T03:47:09;93864.91;;;22.70;57.35
20037;BME280;10179;42.640;23.312;2022-07-29T03:49:36;93873.44;;;22.72;57.88
20037;BME280;10179;42.640;23.312;2022-07-29T03:52:04;93861.63;;;22.73;57.72
20037;BME280;10179;42.640;23.312;2022-07-29T03:54:29;93851.22;;;22.71;57.42
20037;BME280;10179;42.640;23.312;2022-07-29T03:56:58;93867.91;;;22.82;57.69
20037;BME280;10179;42.640;23.312;2022-07-29T03:59:25;93866.28;;;22.81;57.60
20037;BME280;10179;42.640;23.312;2022-07-29T04:01:52;93864.03;;;22.88;57.65
20037;BME280;10179;42.640;23.312;2022-07-29T04:04:18;93867.75;;;22.92;57.61
20037;BME280;10179;42.640;23.312;2022-07-29T04:06:45;93871.69;;;22.95;57.35
20037;BME280;10179;42.640;23.312;2022-07-29T04:09:11;93856.38;;;22.81;57.40
20037;BME280;10179;42.640;23.312;2022-07-29T04:11:38;93863.47;;;23.05;57.25
20037;BME280;10179;42.640;23.312;2022-07-29T04:14:04;93877.88;;;23.23;57.10
20037;BME280;10179;42.640;23.312;2022-07-29T04:16:29;93872.31;;;23.33;56.83
20037;BME280;10179;42.640;23.312;2022-07-29T04:18:55;93875.88;;;23.42;56.69
20037;BME280;10179;42.640;23.312;2022-07-29T04:21:20;93869.72;;;23.55;56.47
20037;BME280;10179;42.640;23.312;2022-07-29T04:23:46;93870.53;;;23.70;55.95
20037;BME280;10179;42.640;23.312;2022-07-29T04:26:18;93789.91;;;23.39;56.10
20037;BME280;10179;42.640;23.312;2022-07-29T04:28:44;93869.22;;;24.03;55.13
20037;BME280;10179;42.640;23.312;2022-07-29T04:31:10;93861.44;;;24.16;54.42
20037;BME280;10179;42.640;23.312;2022-07-29T04:33:35;93877.69;;;24.33;54.18
20037;BME280;10179;42.640;23.312;2022-07-29T04:36:01;93867.88;;;24.51;54.07
20037;BME280;10179;42.640;23.312;2022-07-29T04:38:26;93876.34;;;24.67;53.01
20037;BME280;10179;42.640;23.312;2022-07-29T04:40:52;93869.91;;;24.76;52.61
20037;BME280;10179;42.640;23.312;2022-07-29T04:43:17;93873.47;;;24.94;52.26
20037;BME280;10179;42.640;23.312;2022-07-29T04:45:43;93842.44;;;24.80;51.94
20037;BME280;10179;42.640;23.312;2022-07-29T04:48:08;93871.50;;;25.09;51.15
20037;BME280;10179;42.640;23.312;2022-07-29T04:50:34;93896.41;;;25.23;50.99
20037;BME280;10179;42.640;23.312;2022-07-29T04:52:59;93886.94;;;25.26;50.84
20037;BME280;10179;42.640;23.312;2022-07-29T04:55:24;93881.88;;;25.24;50.03
20037;BME280;10179;42.640;23.312;2022-07-29T04:57:50;93899.44;;;25.30;50.13
20037;BME280;10179;42.640;23.312;2022-07-29T05:00:16;93904.19;;;25.33;50.48
20037;BME280;10179;42.640;23.312;2022-07-29T05:02:43;93902.34;;;25.42;50.49
20037;BME280;10179;42.640;23.312;2022-07-29T05:05:08;93891.94;;;25.50;50.21
20037;BME280;10179;42.640;23.312;2022-07-29T05:07:34;93891.63;;;25.60;49.57
20037;BME280;10179;42.640;23.312;2022-07-29T05:09:59;93893.88;;;25.75;49.26
20037;BME280;10179;42.640;23.312;2022-07-29T05:12:25;93901.34;;;25.87;48.92
20037;BME280;10179;42.640;23.312;2022-07-29T05:14:51;93900.44;;;26.00;49.13
20037;BME280;10179;42.640;23.312;2022-07-29T05:17:17;93903.47;;;26.16;48.64
20037;BME280;10179;42.640;23.312;2022-07-29T05:19:42;93901.88;;;26.32;48.20
20037;BME280;10179;42.640;23.312;2022-07-29T05:22:08;93897.16;;;26.47;47.45
20037;BME280;10179;42.640;23.312;2022-07-29T05:24:33;93908.88;;;26.68;46.80
20037;BME280;10179;42.640;23.312;2022-07-29T05:26:59;93864.19;;;26.50;46.06
20037;BME280;10179;42.640;23.312;2022-07-29T05:29:24;93895.47;;;26.98;45.56
20037;BME280;10179;42.640;23.312;2022-07-29T05:31:50;93884.69;;;27.06;45.45
20037;BME280;10179;42.640;23.312;2022-07-29T05:34:16;93747.41;;;26.37;44.99
20037;BME280;10179;42.640;23.312;2022-07-29T05:36:42;93883.59;;;27.46;44.42
20037;BME280;10179;42.640;23.312;2022-07-29T05:39:07;93897.38;;;27.82;43.78
20037;BME280;10179;42.640;23.312;2022-07-29T05:41:33;93855.88;;;27.66;43.52
20037;BME280;10179;42.640;23.312;2022-07-29T05:43:58;93907.53;;;28.15;43.43
20037;BME280;10179;42.640;23.312;2022-07-29T05:46:24;93836.94;;;27.96;43.22
20037;BME280;10179;42.640;23.312;2022-07-29T05:48:49;93907.50;;;28.57;42.66
20037;BME280;10179;42.640;23.312;2022-07-29T05:51:15;93909.41;;;28.77;42.30
20037;BME280;10179;42.640;23.312;2022-07-29T05:53:40;93914.19;;;28.93;42.21
20037;BME280;10179;42.640;23.312;2022-07-29T05:56:06;93897.75;;;28.98;41.97
20037;BME280;10179;42.640;23.312;2022-07-29T05:58:32;93913.28;;;29.22;41.64
20037;BME280;10179;42.640;23.312;2022-07-29T06:00:57;93916.69;;;29.31;41.23
20037;BME280;10179;42.640;23.312;2022-07-29T06:03:25;93918.59;;;29.43;41.42
20037;BME280;10179;42.640;23.312;2022-07-29T06:05:50;93919.06;;;29.57;41.05
20037;BME280;10179;42.640;23.312;2022-07-29T06:08:16;93921.78;;;29.69;40.34
20037;BME280;10179;42.640;23.312;2022-07-29T06:10:42;93910.53;;;29.67;39.53
20037;BME280;10179;42.640;23.312;2022-07-29T06:13:07;93929.03;;;29.78;39.46
20037;BME280;10179;42.640;23.312;2022-07-29T06:15:33;93929.03;;;29.78;39.81
20037;BME280;10179;42.640;23.312;2022-07-29T06:17:58;93926.09;;;29.83;39.76
20037;BME280;10179;42.640;23.312;2022-07-29T06:20:24;93926.31;;;29.90;39.68
20037;BME280;10179;42.640;23.312;2022-07-29T06:22:49;93918.84;;;29.99;39.91
20037;BME280;10179;42.640;23.312;2022-07-29T06:25:14;93923.81;;;30.09;39.33
20037;BME280;10179;42.640;23.312;2022-07-29T06:27:41;93927.53;;;30.17;39.21
20037;BME280;10179;42.640;23.312;2022-07-29T06:30:07;93922.91;;;30.30;39.44
20037;BME280;10179;42.640;23.312;2022-07-29T06:32:33;93924.44;;;30.43;39.13
20037;BME280;10179;42.640;23.312;2022-07-29T06:34:58;93922.84;;;30.54;39.00
20037;BME280;10179;42.640;23.312;2022-07-29T06:37:24;93900.09;;;30.59;38.65
20037;BME280;10179;42.640;23.312;2022-07-29T06:39:50;93918.03;;;30.76;38.31
20037;BME280;10179;42.640;23.312;2022-07-29T06:42:35;93904.91;;;30.78;37.69
20037;BME280;10179;42.640;23.312;2022-07-29T06:45:00;93913.78;;;30.90;37.52
20037;BME280;10179;42.640;23.312;2022-07-29T06:47:26;93890.16;;;30.91;37.18
20037;BME280;10179;42.640;23.312;2022-07-29T06:49:51;93901.94;;;31.11;37.06
20037;BME280;10179;42.640;23.312;2022-07-29T06:52:17;93907.34;;;31.27;37.14
20037;BME280;10179;42.640;23.312;2022-07-29T06:54:42;93876.53;;;31.19;36.67
20037;BME280;10179;42.640;23.312;2022-07-29T06:57:13;93916.25;;;31.55;36.30
20037;BME280;10179;42.640;23.312;2022-07-29T06:59:38;93914.84;;;31.61;36.31
20037;BME280;10179;42.640;23.312;2022-07-29T07:02:04;93907.16;;;31.64;35.65
20037;BME280;10179;42.640;23.312;2022-07-29T07:04:29;93854.22;;;31.26;36.07
20037;BME280;10179;42.640;23.312;2022-07-29T07:06:55;93900.59;;;31.49;36.00
20037;BME280;10179;42.640;23.312;2022-07-29T07:09:21;93862.88;;;31.16;36.87
20037;BME280;10179;42.640;23.312;2022-07-29T07:11:46;93898.47;;;31.42;36.53
20037;BME280;10179;42.640;23.312;2022-07-29T07:14:12;93906.03;;;31.49;36.50
20037;BME280;10179;42.640;23.312;2022-07-29T07:16:37;93888.13;;;31.48;36.54
20037;BME280;10179;42.640;23.312;2022-07-29T07:19:02;93881.91;;;31.47;36.54
20037;BME280;10179;42.640;23.312;2022-07-29T07:21:29;93912.41;;;31.56;36.07
20037;BME280;10179;42.640;23.312;2022-07-29T07:23:54;93895.75;;;31.42;36.04
20037;BME280;10179;42.640;23.312;2022-07-29T07:26:20;93903.16;;;31.29;36.67
20037;BME280;10179;42.640;23.312;2022-07-29T07:28:45;93876.97;;;31.05;36.95
20037;BME280;10179;42.640;23.312;2022-07-29T07:31:11;93895.38;;;31.28;36.77
20037;BME280;10179;42.640;23.312;2022-07-29T07:33:37;93853.78;;;31.08;36.49
20037;BME280;10179;42.640;23.312;2022-07-29T07:36:03;93894.97;;;31.42;35.93
20037;BME280;10179;42.640;23.312;2022-07-29T07:38:28;93904.50;;;31.51;35.58
20037;BME280;10179;42.640;23.312;2022-07-29T07:40:55;93902.41;;;31.60;35.25
20037;BME280;10179;42.640;23.312;2022-07-29T07:43:20;93841.50;;;31.30;35.05
20037;BME280;10179;42.640;23.312;2022-07-29T07:45:46;93895.75;;;31.74;34.61
20037;BME280;10179;42.640;23.312;2022-07-29T07:48:12;93851.72;;;31.49;34.99
20037;BME280;10179;42.640;23.312;2022-07-29T07:50:38;93908.28;;;31.94;34.68
20037;BME280;10179;42.640;23.312;2022-07-29T07:53:04;93884.84;;;32.05;34.10
20037;BME280;10179;42.640;23.312;2022-07-29T07:55:29;93863.97;;;32.10;33.89
20037;BME280;10179;42.640;23.312;2022-07-29T07:57:55;93876.44;;;32.30;32.95
20037;BME280;10179;42.640;23.312;2022-07-29T08:00:21;93899.28;;;32.64;32.69
20037;BME280;10179;42.640;23.312;2022-07-29T08:02:47;93905.97;;;32.86;32.66
20037;BME280;10179;42.640;23.312;2022-07-29T08:05:13;93902.50;;;33.09;32.44
20037;BME280;10179;42.640;23.312;2022-07-29T08:07:43;93902.88;;;33.30;31.48
20037;BME280;10179;42.640;23.312;2022-07-29T08:10:10;93901.53;;;33.63;31.13
20037;BME280;10179;42.640;23.312;2022-07-29T08:12:35;93907.09;;;33.96;30.79
20037;BME280;10179;42.640;23.312;2022-07-29T08:15:00;93897.22;;;34.11;30.20
20037;BME280;10179;42.640;23.312;2022-07-29T08:17:26;93892.53;;;34.12;30.24
20037;BME280;10179;42.640;23.312;2022-07-29T08:19:52;93872.03;;;34.22;30.05
20037;BME280;10179;42.640;23.312;2022-07-29T08:22:17;93894.13;;;34.70;29.57
20037;BME280;10179;42.640;23.312;2022-07-29T08:24:43;93885.22;;;34.76;29.17
20037;BME280;10179;42.640;23.312;2022-07-29T08:27:13;93889.84;;;35.06;28.46
20037;BME280;10179;42.640;23.312;2022-07-29T08:29:39;93892.47;;;35.32;28.04
20037;BME280;10179;42.640;23.312;2022-07-29T08:32:05;93877.66;;;35.33;28.06
20037;BME280;10179;42.640;23.312;2022-07-29T08:34:31;93861.25;;;35.33;27.67
20037;BME280;10179;42.640;23.312;2022-07-29T08:36:57;93876.22;;;35.50;27.73
20037;BME280;10179;42.640;23.312;2022-07-29T08:39:23;93895.97;;;35.70;27.60
20037;BME280;10179;42.640;23.312;2022-07-29T08:41:49;93896.03;;;35.81;26.91
20037;BME280;10179;42.640;23.312;2022-07-29T08:44:16;93903.16;;;35.93;26.90
20037;BME280;10179;42.640;23.312;2022-07-29T08:46:42;93890.59;;;35.84;26.83
20037;BME280;10179;42.640;23.312;2022-07-29T08:49:07;93889.31;;;35.71;26.73
20037;BME280;10179;42.640;23.312;2022-07-29T08:51:34;93886.63;;;35.75;26.66
20037;BME280;10179;42.640;23.312;2022-07-29T08:54:01;93887.88;;;35.84;27.15
20037;BME280;10179;42.640;23.312;2022-07-29T08:56:27;93880.38;;;35.78;26.94
20037;BME280;10179;42.640;23.312;2022-07-29T08:58:52;93892.69;;;35.54;26.67
20037;BME280;10179;42.640;23.312;2022-07-29T09:01:23;93885.31;;;35.21;27.12
20037;BME280;10179;42.640;23.312;2022-07-29T09:03:52;93886.50;;;34.86;27.49
20037;BME280;10179;42.640;23.312;2022-07-29T09:06:21;93883.69;;;34.49;27.99
20037;BME280;10179;42.640;23.312;2022-07-29T09:08:47;93841.91;;;33.84;28.33
20037;BME280;10179;42.640;23.312;2022-07-29T09:11:14;93866.13;;;33.63;29.18
20037;BME280;10179;42.640;23.312;2022-07-29T09:13:40;93855.88;;;33.33;29.68
20037;BME280;10179;42.640;23.312;2022-07-29T09:16:06;93889.41;;;33.37;30.02
20037;BME280;10179;42.640;23.312;2022-07-29T09:21:01;93882.88;;;33.65;29.98
20037;BME280;10179;42.640;23.312;2022-07-29T09:24:13;93874.72;;;33.91;29.30
20037;BME280;10179;42.640;23.312;2022-07-29T09:26:42;93874.75;;;34.22;29.53
20037;BME280;10179;42.640;23.312;2022-07-29T09:29:16;93807.41;;;33.95;28.68
20037;BME280;10179;42.640;23.312;2022-07-29T09:31:46;93869.97;;;34.72;29.02
20037;BME280;10179;42.640;23.312;2022-07-29T09:34:15;93864.88;;;35.04;28.39
20037;BME280;10179;42.640;23.312;2022-07-29T09:36:43;93856.47;;;35.23;27.89
20037;BME280;10179;42.640;23.312;2022-07-29T09:39:08;93837.75;;;35.22;27.32
20037;BME280;10179;42.640;23.312;2022-07-29T09:41:51;93874.84;;;35.67;27.16
20037;BME280;10179;42.640;23.312;2022-07-29T09:44:21;93863.88;;;35.64;27.41
20037;BME280;10179;42.640;23.312;2022-07-29T09:47:02;93864.59;;;35.57;26.92
20037;BME280;10179;42.640;23.312;2022-07-29T09:49:32;93862.06;;;35.37;27.50
20037;BME280;10179;42.640;23.312;2022-07-29T09:52:06;93859.97;;;35.24;27.36
20037;BME280;10179;42.640;23.312;2022-07-29T09:54:32;93846.91;;;35.03;27.30
20037;BME280;10179;42.640;23.312;2022-07-29T09:57:27;93824.34;;;34.72;27.71
20037;BME280;10179;42.640;23.312;2022-07-29T10:02:21;93857.84;;;34.69;28.21
20037;BME280;10179;42.640;23.312;2022-07-29T10:04:47;93849.50;;;34.55;28.29
20037;BME280;10179;42.640;23.312;2022-07-29T10:07:12;93852.13;;;34.48;28.79
20037;BME280;10179;42.640;23.312;2022-07-29T10:09:38;93848.56;;;34.43;28.66
20037;BME280;10179;42.640;23.312;2022-07-29T10:12:11;93835.19;;;34.35;28.68
20037;BME280;10179;42.640;23.312;2022-07-29T10:14:40;93830.38;;;34.25;28.83
20037;BME280;10179;42.640;23.312;2022-07-29T10:17:07;93838.13;;;34.19;29.03
20037;BME280;10179;42.640;23.312;2022-07-29T10:19:34;93834.97;;;34.17;28.87
20037;BME280;10179;42.640;23.312;2022-07-29T10:22:02;93834.41;;;34.34;29.26
20037;BME280;10179;42.640;23.312;2022-07-29T10:24:29;93826.66;;;34.70;28.41
20037;BME280;10179;42.640;23.312;2022-07-29T10:26:57;93811.00;;;35.01;28.75
20037;BME280;10179;42.640;23.312;2022-07-29T10:29:23;93816.81;;;35.40;27.94
20037;BME280;10179;42.640;23.312;2022-07-29T10:35:01;93824.38;;;36.09;26.89
20037;BME280;10179;42.640;23.312;2022-07-29T10:43:14;93810.28;;;36.07;26.75
20037;BME280;10179;42.640;23.312;2022-07-29T10:45:44;93814.41;;;35.87;27.13
20037;BME280;10179;42.640;23.312;2022-07-29T10:48:10;93817.81;;;35.69;27.06
20037;BME280;10179;42.640;23.312;2022-07-29T10:50:56;93805.34;;;35.68;27.23
20037;BME280;10179;42.640;23.312;2022-07-29T10:53:23;93803.09;;;35.84;26.75
20037;BME280;10179;42.640;23.312;2022-07-29T10:55:51;93802.53;;;36.23;26.01
20037;BME280;10179;42.640;23.312;2022-07-29T10:58:23;93762.34;;;36.42;26.08
20037;BME280;10179;42.640;23.312;2022-07-29T11:00:54;93801.25;;;37.15;25.78
20037;BME280;10179;42.640;23.312;2022-07-29T11:06:07;93795.38;;;38.03;23.57
20037;BME280;10179;42.640;23.312;2022-07-29T11:08:33;93791.75;;;38.38;23.36
20037;BME280;10179;42.640;23.312;2022-07-29T11:11:31;93795.44;;;38.80;22.54
20037;BME280;10179;42.640;23.312;2022-07-29T11:13:57;93794.59;;;38.97;21.81
20037;BME280;10179;42.640;23.312;2022-07-29T11:16:22;93794.56;;;39.01;21.52
20037;BME280;10179;42.640;23.312;2022-07-29T11:21:37;93790.88;;;38.55;22.40
20037;BME280;10179;42.640;23.312;2022-07-29T11:26:42;93769.38;;;38.36;21.79
20037;BME280;10179;42.640;23.312;2022-07-29T11:29:20;93784.22;;;38.49;21.66
20037;BME280;10179;42.640;23.312;2022-07-29T11:31:50;93781.13;;;38.29;22.03
20037;BME280;10179;42.640;23.312;2022-07-29T11:34:29;93776.97;;;37.92;22.35
20037;BME280;10179;42.640;23.312;2022-07-29T11:45:12;93774.47;;;36.41;24.01
20037;BME280;10179;42.640;23.312;2022-07-29T11:47:50;93762.59;;;36.08;24.72
20037;BME280;10179;42.640;23.312;2022-07-29T11:50:36;93767.19;;;35.90;25.01
20037;BME280;10179;42.640;23.312;2022-07-29T11:53:10;93758.41;;;35.59;25.10
20037;BME280;10179;42.640;23.312;2022-07-29T11:55:37;93766.03;;;35.35;24.82
20037;BME280;10179;42.640;23.312;2022-07-29T11:58:03;93759.59;;;35.10;25.45
20037;BME280;10179;42.640;23.312;2022-07-29T12:00:40;93761.03;;;34.97;25.95
20037;BME280;10179;42.640;23.312;2022-07-29T12:03:10;93766.34;;;34.82;26.10
20037;BME280;10179;42.640;23.312;2022-07-29T12:05:39;93760.00;;;34.71;26.67
20037;BME280;10179;42.640;23.312;2022-07-29T12:10:38;93753.72;;;34.67;26.29
20037;BME280;10179;42.640;23.312;2022-07-29T12:13:04;93755.63;;;34.63;26.10
20037;BME280;10179;42.640;23.312;2022-07-29T12:15:30;93755.22;;;34.61;26.06
20037;BME280;10179;42.640;23.312;2022-07-29T12:17:55;93715.91;;;34.32;25.97
20037;BME280;10179;42.640;23.312;2022-07-29T12:20:30;93767.72;;;34.62;26.02
20037;BME280;10179;42.640;23.312;2022-07-29T12:22:56;93759.47;;;34.55;25.80
20037;BME280;10179;42.640;23.312;2022-07-29T12:25:23;93760.53;;;34.50;25.86
20037;BME280;10179;42.640;23.312;2022-07-29T12:27:59;93760.19;;;34.52;26.30
20037;BME280;10179;42.640;23.312;2022-07-29T12:30:35;93762.94;;;34.52;26.04
20037;BME280;10179;42.640;23.312;2022-07-29T12:33:10;93763.66;;;34.49;25.73
20037;BME280;10179;42.640;23.312;2022-07-29T12:35:36;93750.72;;;34.42;25.98
20037;BME280;10179;42.640;23.312;2022-07-29T12:38:02;93744.03;;;34.39;26.01
20037;BME280;10179;42.640;23.312;2022-07-29T12:40:28;93730.63;;;34.24;26.12
20037;BME280;10179;42.640;23.312;2022-07-29T12:43:15;93730.75;;;34.34;25.92
20037;BME280;10179;42.640;23.312;2022-07-29T12:45:48;93745.22;;;34.38;26.02
20037;BME280;10179;42.640;23.312;2022-07-29T12:48:15;93740.19;;;34.40;26.19
20037;BME280;10179;42.640;23.312;2022-07-29T12:50:56;93742.56;;;34.46;26.33
20037;BME280;10179;42.640;23.312;2022-07-29T12:53:21;93737.09;;;34.46;26.40
20037;BME280;10179;42.640;23.312;2022-07-29T12:55:50;93730.88;;;34.45;25.93
20037;BME280;10179;42.640;23.312;2022-07-29T12:58:36;93684.69;;;34.29;26.08
20037;BME280;10179;42.640;23.312;2022-07-29T13:03:49;93725.19;;;34.61;26.93
20037;BME280;10179;42.640;23.312;2022-07-29T13:06:42;93717.06;;;34.68;27.10
20037;BME280;10179;42.640;23.312;2022-07-29T13:09:19;93729.94;;;34.67;26.87
20037;BME280;10179;42.640;23.312;2022-07-29T13:11:47;93709.66;;;34.65;27.22
20037;BME280;10179;42.640;23.312;2022-07-29T13:14:30;93706.94;;;34.65;27.19
20037;BME280;10179;42.640;23.312;2022-07-29T13:17:04;93679.44;;;34.47;27.09
20037;BME280;10179;42.640;23.312;2022-07-29T13:19:34;93693.66;;;34.63;26.94
20037;BME280;10179;42.640;23.312;2022-07-29T13:22:00;93706.97;;;34.69;27.07
20037;BME280;10179;42.640;23.312;2022-07-29T13:24:25;93696.75;;;34.62;26.89
20037;BME280;10179;42.640;23.312;2022-07-29T13:26:51;93658.34;;;34.40;26.38
20037;BME280;10179;42.640;23.312;2022-07-29T13:29:17;93703.84;;;34.70;26.23
20037;BME280;10179;42.640;23.312;2022-07-29T13:31:42;93696.81;;;34.69;26.35
20037;BME280;10179;42.640;23.312;2022-07-29T13:34:08;93699.94;;;34.71;26.23
20037;BME280;10179;42.640;23.312;2022-07-29T13:36:33;93689.41;;;34.70;25.92
20037;BME280;10179;42.640;23.312;2022-07-29T13:38:59;93692.94;;;34.70;26.00
20037;BME280;10179;42.640;23.312;2022-07-29T13:41:26;93647.00;;;34.38;25.88
20037;BME280;10179;42.640;23.312;2022-07-29T13:43:51;93685.09;;;34.65;25.95